createdAt,value
2018-02-11T00:00:32.881Z,79.82
2018-02-11T00:03:01.201Z,79.76
2018-02-11T00:05:29.581Z,79.85
2018-02-11T00:07:57.891Z,79.95
2018-02-11T00:10:26.270Z,79.70
2018-02-11T00:12:55.446Z,79.94
2018-02-11T00:15:23.752Z,80.10
2018-02-11T00:17:52.089Z,80.00
2018-02-11T00:20:20.464Z,80.14
2018-02-11T00:22:48.772Z,80.01
2018-02-11T00:25:17.104Z,80.16
2018-02-11T00:27:45.472Z,79.92
2018-02-11T00:30:13.779Z,79.85
2018-02-11T00:32:42.232Z,79.81
2018-02-11T00:35:10.621Z,79.90
2018-02-11T00:37:44.446Z,79.99
2018-02-11T00:40:12.983Z,80.21
2018-02-11T00:42:41.303Z,80.00
2018-02-11T00:45:09.617Z,80.05
2018-02-11T00:47:37.984Z,79.93
2018-02-11T00:50:06.459Z,79.98
2018-02-11T00:52:34.793Z,80.20
2018-02-11T00:55:03.144Z,80.00
2018-02-11T00:57:31.479Z,79.81
2018-02-11T00:59:59.837Z,79.60
2018-02-11T01:02:28.150Z,79.26
2018-02-11T01:04:56.490Z,78.98
2018-02-11T01:09:58.383Z,79.45
2018-02-11T01:12:26.747Z,79.24
2018-02-11T01:14:55.064Z,79.03
2018-02-11T01:17:23.379Z,78.91
2018-02-11T01:19:51.737Z,78.96
2018-02-11T01:22:20.817Z,78.80
2018-02-11T01:24:49.891Z,78.47
2018-02-11T01:27:18.261Z,78.84
2018-02-11T01:29:46.564Z,78.45
2018-02-11T01:32:14.932Z,78.32
2018-02-11T01:34:43.297Z,78.04
2018-02-11T01:37:11.604Z,77.74
2018-02-11T01:39:39.928Z,77.93
2018-02-11T01:42:08.266Z,77.86
2018-02-11T01:44:37.340Z,77.95
2018-02-11T01:47:05.647Z,77.82
2018-02-11T01:49:34.774Z,77.81
2018-02-11T01:52:03.079Z,78.16
2018-02-11T01:54:31.395Z,78.29
2018-02-11T01:56:59.764Z,78.31
2018-02-11T01:59:28.092Z,78.52
2018-02-11T02:01:56.396Z,78.58
2018-02-11T02:04:24.723Z,78.70
2018-02-11T02:06:53.027Z,79.23
2018-02-11T02:09:21.369Z,79.40
2018-02-11T02:11:49.687Z,78.94
2018-02-11T02:14:18.004Z,78.51
2018-02-11T02:16:46.343Z,78.42
2018-02-11T02:19:14.656Z,78.20
2018-02-11T02:21:42.995Z,78.33
2018-02-11T02:24:11.332Z,78.39
2018-02-11T02:26:39.716Z,78.75
2018-02-11T02:29:08.031Z,79.10
2018-02-11T02:31:36.348Z,78.22
2018-02-11T02:34:04.687Z,78.08
2018-02-11T02:36:33.028Z,78.25
2018-02-11T02:39:01.384Z,78.20
2018-02-11T02:41:29.713Z,78.45
2018-02-11T02:43:58.019Z,78.15
2018-02-11T02:46:26.392Z,77.98
2018-02-11T02:48:54.712Z,77.95
2018-02-11T02:51:23.026Z,78.05
2018-02-11T02:53:51.387Z,78.16
2018-02-11T02:56:19.696Z,78.68
2018-02-11T02:58:48.012Z,79.02
2018-02-11T03:01:16.456Z,78.54
2018-02-11T03:03:44.827Z,78.44
2018-02-11T03:06:13.141Z,78.10
2018-02-11T03:08:41.499Z,78.51
2018-02-11T03:11:09.816Z,78.27
2018-02-11T03:13:38.314Z,77.97
2018-02-11T03:16:06.671Z,77.71
2018-02-11T03:18:35.920Z,77.62
2018-02-11T03:21:04.895Z,77.64
2018-02-11T03:23:33.246Z,77.64
2018-02-11T03:26:01.568Z,77.60
2018-02-11T03:28:29.884Z,78.22
2018-02-11T03:30:58.997Z,77.09
2018-02-11T03:33:28.072Z,76.73
2018-02-11T03:35:57.157Z,77.25
2018-02-11T03:38:26.067Z,77.09
2018-02-11T03:40:55.136Z,77.85
2018-02-11T03:43:23.448Z,78.04
2018-02-11T03:45:51.787Z,78.04
2018-02-11T03:48:20.104Z,78.11
2018-02-11T03:50:48.439Z,78.52
2018-02-11T03:53:16.756Z,78.82
2018-02-11T03:55:45.084Z,78.74
2018-02-11T03:58:13.399Z,78.21
2018-02-11T04:00:41.736Z,78.04
2018-02-11T04:03:10.048Z,77.94
2018-02-11T04:05:39.155Z,77.63
2018-02-11T04:08:08.230Z,76.26
2018-02-11T04:10:36.572Z,75.58
2018-02-11T04:13:04.885Z,75.08
2018-02-11T04:15:33.196Z,74.45
2018-02-11T04:18:01.552Z,73.64
2018-02-11T04:20:30.629Z,73.05
2018-02-11T04:22:58.935Z,72.27
2018-02-11T04:25:27.291Z,70.93
2018-02-11T04:27:55.605Z,70.75
2018-02-11T04:30:23.948Z,70.94
2018-02-11T04:32:52.296Z,70.42
2018-02-11T04:35:20.599Z,70.44
2018-02-11T04:37:48.921Z,70.46
2018-02-11T04:40:17.279Z,70.30
2018-02-11T04:42:45.942Z,70.07
2018-02-11T04:45:15.043Z,69.99
2018-02-11T04:47:44.255Z,69.91
2018-02-11T04:50:12.575Z,70.11
2018-02-11T04:52:40.891Z,69.82
2018-02-11T04:55:09.544Z,69.94
2018-02-11T04:57:37.617Z,70.04
2018-02-11T05:00:05.936Z,69.87
2018-02-11T05:02:34.284Z,69.87
2018-02-11T05:05:02.592Z,69.99
2018-02-11T05:07:30.899Z,69.85
2018-02-11T05:09:59.255Z,70.32
2018-02-11T05:12:28.316Z,70.23
2018-02-11T05:14:56.621Z,70.22
2018-02-11T05:17:25.719Z,70.27
2018-02-11T05:19:54.800Z,70.42
2018-02-11T05:22:23.116Z,70.84
2018-02-11T05:24:51.672Z,71.18
2018-02-11T05:27:20.004Z,71.23
2018-02-11T05:29:48.311Z,71.40
2018-02-11T05:32:16.840Z,71.45
2018-02-11T05:34:45.155Z,70.94
2018-02-11T05:37:13.476Z,70.65
2018-02-11T05:39:41.891Z,70.67
2018-02-11T05:42:10.193Z,70.94
2018-02-11T05:44:38.495Z,70.92
2018-02-11T05:47:06.852Z,70.89
2018-02-11T05:49:35.163Z,70.91
2018-02-11T05:52:03.491Z,70.65
2018-02-11T05:54:31.840Z,70.36
2018-02-11T05:57:00.183Z,69.93
2018-02-11T05:59:28.547Z,69.36
2018-02-11T06:01:56.856Z,69.31
2018-02-11T06:04:25.173Z,69.35
2018-02-11T06:06:53.602Z,68.87
2018-02-11T06:09:21.916Z,68.67
2018-02-11T06:11:50.245Z,69.00
2018-02-11T06:14:18.616Z,68.55
2018-02-11T06:16:46.927Z,68.33
2018-02-11T06:19:15.239Z,68.33
2018-02-11T06:21:43.595Z,67.88
2018-02-11T06:24:11.898Z,67.26
2018-02-11T06:26:44.060Z,67.29
2018-02-11T06:29:12.376Z,67.25
2018-02-11T06:31:40.679Z,67.07
2018-02-11T06:34:09.068Z,66.77
2018-02-11T06:36:37.380Z,66.80
2018-02-11T06:39:05.683Z,66.94
2018-02-11T06:41:34.054Z,66.51
2018-02-11T06:44:02.372Z,66.30
2018-02-11T06:46:30.676Z,66.31
2018-02-11T06:48:59.011Z,66.40
2018-02-11T06:51:27.330Z,66.32
2018-02-11T06:53:55.687Z,66.34
2018-02-11T06:56:24.022Z,66.76
2018-02-11T06:58:52.330Z,66.10
2018-02-11T07:01:20.760Z,66.04
2018-02-11T07:03:49.072Z,65.99
2018-02-11T07:06:17.380Z,65.57
2018-02-11T07:08:45.732Z,65.49
2018-02-11T07:11:14.029Z,65.52
2018-02-11T07:13:43.100Z,64.75
2018-02-11T07:16:11.448Z,64.80
2018-02-11T07:18:39.743Z,64.98
2018-02-11T07:21:08.055Z,64.52
2018-02-11T07:23:36.419Z,63.96
2018-02-11T07:26:04.787Z,63.82
2018-02-11T07:28:33.068Z,64.09
2018-02-11T07:31:01.439Z,63.71
2018-02-11T07:33:29.744Z,63.70
2018-02-11T07:35:58.831Z,63.45
2018-02-11T07:38:27.960Z,62.99
2018-02-11T07:40:56.261Z,62.81
2018-02-11T07:43:24.563Z,62.75
2018-02-11T07:45:52.884Z,62.62
2018-02-11T07:48:21.192Z,62.86
2018-02-11T07:50:49.575Z,63.15
2018-02-11T07:53:17.855Z,62.84
2018-02-11T07:55:46.184Z,62.48
2018-02-11T07:58:14.526Z,62.27
2018-02-11T08:00:42.836Z,62.11
2018-02-11T08:03:11.906Z,61.54
2018-02-11T08:05:40.263Z,61.42
2018-02-11T08:08:08.580Z,61.09
2018-02-11T08:10:36.935Z,60.70
2018-02-11T08:13:05.264Z,59.53
2018-02-11T08:15:33.572Z,59.68
2018-02-11T08:18:02.239Z,59.33
2018-02-11T08:20:30.535Z,58.84
2018-02-11T08:22:58.837Z,58.46
2018-02-11T08:25:27.168Z,58.20
2018-02-11T08:27:55.465Z,58.42
2018-02-11T08:30:23.764Z,58.68
2018-02-11T08:32:52.148Z,58.41
2018-02-11T08:35:20.447Z,58.75
2018-02-11T08:37:48.761Z,58.53
2018-02-11T08:40:17.092Z,58.66
2018-02-11T08:42:46.154Z,59.13
2018-02-11T08:45:14.472Z,58.94
2018-02-11T08:47:42.839Z,58.82
2018-02-11T08:50:11.156Z,58.55
2018-02-11T08:52:39.458Z,58.46
2018-02-11T08:55:07.812Z,58.33
2018-02-11T08:57:36.124Z,58.43
2018-02-11T09:00:04.439Z,57.68
2018-02-11T09:02:32.799Z,57.92
2018-02-11T09:05:01.112Z,57.36
2018-02-11T09:07:29.420Z,57.48
2018-02-11T09:09:57.803Z,57.96
2018-02-11T09:12:26.111Z,57.83
2018-02-11T09:14:54.424Z,57.55
2018-02-11T09:17:22.781Z,57.15
2018-02-11T09:19:51.083Z,56.47
2018-02-11T09:22:19.392Z,56.89
2018-02-11T09:24:47.840Z,56.54
2018-02-11T09:27:16.790Z,57.30
2018-02-11T09:29:45.092Z,57.54
2018-02-11T09:32:14.051Z,57.51
2018-02-11T09:34:42.351Z,57.06
2018-02-11T09:37:10.667Z,56.61
2018-02-11T09:39:39.043Z,56.68
2018-02-11T09:42:07.386Z,55.96
2018-02-11T09:44:35.704Z,55.35
2018-02-11T09:47:04.048Z,55.10
2018-02-11T09:49:32.924Z,55.34
2018-02-11T09:52:01.241Z,55.00
2018-02-11T09:54:29.597Z,55.60
2018-02-11T09:56:57.900Z,55.97
2018-02-11T09:59:26.200Z,57.02
2018-02-11T10:01:54.551Z,57.59
2018-02-11T10:04:22.857Z,58.45
2018-02-11T10:06:51.160Z,57.54
2018-02-11T10:09:20.020Z,57.90
2018-02-11T10:11:48.328Z,57.40
2018-02-11T10:14:16.628Z,56.79
2018-02-11T10:16:44.975Z,57.23
2018-02-11T10:19:13.273Z,56.77
2018-02-11T10:21:42.362Z,58.36
2018-02-11T10:24:11.492Z,58.84
2018-02-11T10:26:39.823Z,58.77
2018-02-11T10:29:08.172Z,58.48
2018-02-11T10:31:36.812Z,57.47
2018-02-11T10:34:05.116Z,59.25
2018-02-11T10:36:33.418Z,58.39
2018-02-11T10:39:01.799Z,58.97
2018-02-11T10:41:30.103Z,58.51
2018-02-11T10:43:58.421Z,58.14
2018-02-11T10:46:26.770Z,58.86
2018-02-11T10:48:55.840Z,59.33
2018-02-11T10:51:24.140Z,59.78
2018-02-11T10:53:53.247Z,59.76
2018-02-11T10:56:21.568Z,61.02
2018-02-11T10:58:50.370Z,61.78
2018-02-11T11:01:18.784Z,61.84
2018-02-11T11:03:47.095Z,62.06
2018-02-11T11:06:15.396Z,62.31
2018-02-11T11:08:43.761Z,62.99
2018-02-11T11:11:12.076Z,64.55
2018-02-11T11:13:40.431Z,66.24
2018-02-11T11:16:08.789Z,65.91
2018-02-11T11:18:37.096Z,65.94
2018-02-11T11:21:05.394Z,65.81
2018-02-11T11:23:33.764Z,65.87
2018-02-11T11:26:02.132Z,65.65
2018-02-11T11:28:30.432Z,66.15
2018-02-11T11:30:58.792Z,65.84
2018-02-11T11:33:27.100Z,65.87
2018-02-11T11:35:55.403Z,65.76
2018-02-11T11:38:23.787Z,64.71
2018-02-11T11:40:52.096Z,66.93
2018-02-11T11:43:20.770Z,69.02
2018-02-11T11:45:49.139Z,72.72
2018-02-11T11:48:17.448Z,75.43
2018-02-11T11:50:45.748Z,75.37
2018-02-11T11:53:14.159Z,76.56
2018-02-11T11:55:42.459Z,77.53
2018-02-11T11:58:10.763Z,77.22
2018-02-11T12:00:39.129Z,77.94
2018-02-11T12:03:07.448Z,78.48
2018-02-11T12:05:35.743Z,79.34
2018-02-11T12:08:04.380Z,78.67
2018-02-11T12:10:32.684Z,78.96
2018-02-11T12:13:01.123Z,79.54
2018-02-11T12:15:29.463Z,78.86
2018-02-11T12:17:57.763Z,78.89
2018-02-11T12:20:26.066Z,78.08
2018-02-11T12:22:54.427Z,78.29
2018-02-11T12:25:22.768Z,79.16
2018-02-11T12:27:51.064Z,78.72
2018-02-11T12:30:19.407Z,77.83
2018-02-11T12:32:47.716Z,78.44
2018-02-11T12:35:16.020Z,76.98
2018-02-11T12:37:44.361Z,76.19
2018-02-11T12:40:12.667Z,75.83
2018-02-11T12:42:40.963Z,76.33
2018-02-11T12:45:09.615Z,76.18
2018-02-11T12:47:37.928Z,76.05
2018-02-11T12:50:06.267Z,75.15
2018-02-11T12:52:34.629Z,75.05
2018-02-11T12:55:02.940Z,74.00
2018-02-11T12:57:31.258Z,74.92
2018-02-11T12:59:59.611Z,73.83
2018-02-11T13:02:27.907Z,75.83
2018-02-11T13:04:56.224Z,75.61
2018-02-11T13:07:24.575Z,76.12
2018-02-11T13:09:52.880Z,76.17
2018-02-11T13:12:21.218Z,76.44
2018-02-11T13:14:49.563Z,75.95
2018-02-11T13:17:17.867Z,75.19
2018-02-11T13:19:46.159Z,75.02
2018-02-11T13:22:14.527Z,74.51
2018-02-11T13:24:43.592Z,74.93
2018-02-11T13:27:11.887Z,74.68
2018-02-11T13:29:40.447Z,74.55
2018-02-11T13:32:09.235Z,74.74
2018-02-11T13:34:37.536Z,75.26
2018-02-11T13:37:06.200Z,74.94
2018-02-11T13:39:34.511Z,74.64
2018-02-11T13:42:03.623Z,75.04
2018-02-11T13:44:31.962Z,75.42
2018-02-11T13:47:00.268Z,75.61
2018-02-11T13:49:28.587Z,75.71
2018-02-11T13:51:57.032Z,75.98
2018-02-11T13:54:25.336Z,75.68
2018-02-11T13:56:53.637Z,76.11
2018-02-11T13:59:22.076Z,76.03
2018-02-11T14:01:50.371Z,75.93
2018-02-11T14:04:18.693Z,76.56
2018-02-11T14:06:47.488Z,78.07
2018-02-11T14:09:16.670Z,79.86
2018-02-11T14:11:44.967Z,80.80
2018-02-11T14:14:13.712Z,82.26
2018-02-11T14:16:42.029Z,81.39
2018-02-11T14:19:10.358Z,81.66
2018-02-11T14:21:38.727Z,80.25
2018-02-11T14:24:07.035Z,80.94
2018-02-11T14:26:35.350Z,81.42
2018-02-11T14:29:03.699Z,82.63
2018-02-11T14:31:31.995Z,82.64
2018-02-11T14:34:00.300Z,83.15
2018-02-11T14:36:28.643Z,83.45
2018-02-11T14:38:56.944Z,84.16
2018-02-11T14:41:25.252Z,83.69
2018-02-11T14:43:53.625Z,84.32
2018-02-11T14:46:21.924Z,83.34
2018-02-11T14:48:50.227Z,83.32
2018-02-11T14:51:18.587Z,84.35
2018-02-11T14:53:47.605Z,84.50
2018-02-11T14:56:15.908Z,84.62
2018-02-11T14:58:44.257Z,83.64
2018-02-11T15:01:12.551Z,83.86
2018-02-11T15:03:41.615Z,83.57
2018-02-11T15:06:09.952Z,83.59
2018-02-11T15:08:38.256Z,83.82
2018-02-11T15:11:06.557Z,83.18
2018-02-11T15:13:34.917Z,82.26
2018-02-11T15:16:03.612Z,82.32
2018-02-11T15:18:31.915Z,82.11
2018-02-11T15:21:01.040Z,81.44
2018-02-11T15:23:29.343Z,81.52
2018-02-11T15:25:57.647Z,81.38
2018-02-11T15:28:26.021Z,81.82
2018-02-11T15:30:54.320Z,81.64
2018-02-11T15:33:23.388Z,80.79
2018-02-11T15:35:51.739Z,81.59
2018-02-11T15:38:20.039Z,81.31
2018-02-11T15:40:48.344Z,80.54
2018-02-11T15:43:16.705Z,81.03
2018-02-11T15:45:45.005Z,80.21
2018-02-11T15:48:14.077Z,79.80
2018-02-11T15:50:42.416Z,80.29
2018-02-11T15:53:10.730Z,80.31
2018-02-11T15:55:39.027Z,80.82
2018-02-11T15:58:07.408Z,80.85
2018-02-11T16:00:35.487Z,80.79
2018-02-11T16:03:03.799Z,80.83
2018-02-11T16:05:32.170Z,81.49
2018-02-11T16:08:00.479Z,81.35
2018-02-11T16:10:28.916Z,81.37
2018-02-11T16:12:57.690Z,81.58
2018-02-11T16:15:26.035Z,81.36
2018-02-11T16:17:54.340Z,81.63
2018-02-11T16:20:22.779Z,81.61
2018-02-11T16:22:51.079Z,82.20
2018-02-11T16:25:19.380Z,82.13
2018-02-11T16:27:47.711Z,82.27
2018-02-11T16:30:16.023Z,82.42
2018-02-11T16:32:44.335Z,82.46
2018-02-11T16:35:12.700Z,82.39
2018-02-11T16:37:41.064Z,82.67
2018-02-11T16:40:10.127Z,82.71
2018-02-11T16:42:38.479Z,82.49
2018-02-11T16:45:06.788Z,82.38
2018-02-11T16:47:35.091Z,82.07
2018-02-11T16:50:03.451Z,82.30
2018-02-11T16:52:31.767Z,82.41
2018-02-11T16:55:00.069Z,82.07
2018-02-11T16:57:28.445Z,82.11
2018-02-11T16:59:56.743Z,82.13
2018-02-11T17:02:25.062Z,81.91
2018-02-11T17:04:54.652Z,81.99
2018-02-11T17:07:22.955Z,82.19
2018-02-11T17:09:51.263Z,82.67
2018-02-11T17:12:19.656Z,82.85
2018-02-11T17:14:48.004Z,83.17
2018-02-11T17:17:16.282Z,83.46
2018-02-11T17:19:44.624Z,83.35
2018-02-11T17:22:13.699Z,83.15
2018-02-11T17:24:42.004Z,82.83
2018-02-11T17:27:11.120Z,82.74
2018-02-11T17:29:40.184Z,83.02
2018-02-11T17:32:09.267Z,82.92
2018-02-11T17:34:37.615Z,83.09
2018-02-11T17:37:05.932Z,83.15
2018-02-11T17:39:34.278Z,82.97
2018-02-11T17:42:02.707Z,83.22
2018-02-11T17:44:31.060Z,83.17
2018-02-11T17:46:59.372Z,83.39
2018-02-11T17:49:27.715Z,83.39
2018-02-11T17:51:56.012Z,83.13
2018-02-11T17:54:24.314Z,83.17
2018-02-11T17:56:52.675Z,83.14
2018-02-11T17:59:21.747Z,83.28
2018-02-11T18:01:50.066Z,83.95
2018-02-11T18:04:19.176Z,83.97
2018-02-11T18:06:47.476Z,84.27
2018-02-11T18:09:15.791Z,84.15
2018-02-11T18:11:44.156Z,84.31
2018-02-11T18:14:12.456Z,84.79
2018-02-11T18:16:40.776Z,84.66
2018-02-11T18:19:09.148Z,84.87
2018-02-11T18:21:37.443Z,85.46
2018-02-11T18:24:05.743Z,85.61
2018-02-11T18:26:34.855Z,85.71
2018-02-11T18:29:03.925Z,85.87
2018-02-11T18:31:32.572Z,86.42
2018-02-11T18:34:01.236Z,87.33
2018-02-11T18:36:29.557Z,87.94
2018-02-11T18:38:57.856Z,88.23
2018-02-11T18:41:26.171Z,88.40
2018-02-11T18:43:54.956Z,88.53
2018-02-11T18:46:23.329Z,88.54
2018-02-11T18:48:51.662Z,88.19
2018-02-11T18:51:19.971Z,88.09
2018-02-11T18:53:48.267Z,88.33
2018-02-11T18:56:16.623Z,88.13
2018-02-11T18:58:44.951Z,87.87
2018-02-11T19:01:13.251Z,87.44
2018-02-11T19:03:41.601Z,87.61
2018-02-11T19:06:09.915Z,87.62
2018-02-11T19:08:38.215Z,87.82
2018-02-11T19:11:07.314Z,88.10
2018-02-11T19:13:35.621Z,88.14
2018-02-11T19:16:03.927Z,88.11
2018-02-11T19:18:32.324Z,88.24
2018-02-11T19:21:00.623Z,88.27
2018-02-11T19:23:28.960Z,88.23
2018-02-11T19:25:57.309Z,88.19
2018-02-11T19:28:25.789Z,87.94
2018-02-11T19:30:54.094Z,87.83
2018-02-11T19:33:22.439Z,87.64
2018-02-11T19:35:50.747Z,87.39
2018-02-11T19:38:19.121Z,87.28
2018-02-11T19:40:47.459Z,87.45
2018-02-11T19:43:15.757Z,87.48
2018-02-11T19:45:44.073Z,87.71
2018-02-11T19:48:13.426Z,87.61
2018-02-11T19:50:41.737Z,87.27
2018-02-11T19:53:10.035Z,87.02
2018-02-11T19:55:38.672Z,87.34
2018-02-11T19:58:06.995Z,87.59
2018-02-11T20:00:36.115Z,87.34
2018-02-11T20:03:05.206Z,87.22
2018-02-11T20:05:34.267Z,86.95
2018-02-11T20:08:02.635Z,86.72
2018-02-11T20:10:30.940Z,86.68
2018-02-11T20:12:59.257Z,86.76
2018-02-11T20:15:27.595Z,86.69
2018-02-11T20:17:55.893Z,86.58
2018-02-11T20:20:24.204Z,86.49
2018-02-11T20:22:52.560Z,86.94
2018-02-11T20:25:20.921Z,86.81
2018-02-11T20:27:49.239Z,86.62
2018-02-11T20:30:17.581Z,86.57
2018-02-11T20:32:45.891Z,87.20
2018-02-11T20:35:14.196Z,87.26
2018-02-11T20:37:42.550Z,87.12
2018-02-11T20:40:10.844Z,87.27
2018-02-11T20:42:39.149Z,87.36
2018-02-11T20:45:07.512Z,87.33
2018-02-11T20:47:35.811Z,87.14
2018-02-11T20:50:04.880Z,87.49
2018-02-11T20:52:33.228Z,87.80
2018-02-11T20:55:01.535Z,87.66
2018-02-11T20:57:29.842Z,87.35
2018-02-11T20:59:58.206Z,87.52
2018-02-11T21:02:26.503Z,87.70
2018-02-11T21:04:54.804Z,87.51
2018-02-11T21:07:23.151Z,87.29
2018-02-11T21:09:51.443Z,87.08
2018-02-11T21:12:19.756Z,87.24
2018-02-11T21:14:48.191Z,87.09
2018-02-11T21:17:16.499Z,87.06
2018-02-11T21:19:44.558Z,87.35
2018-02-11T21:22:12.903Z,87.53
2018-02-11T21:24:41.212Z,87.41
2018-02-11T21:27:09.523Z,87.54
2018-02-11T21:29:37.899Z,87.65
2018-02-11T21:32:06.216Z,87.69
2018-02-11T21:34:34.525Z,87.86
2018-02-11T21:37:04.356Z,87.80
2018-02-11T21:39:32.665Z,87.65
2018-02-11T21:42:00.970Z,87.82
2018-02-11T21:44:30.075Z,87.85
2018-02-11T21:46:58.379Z,87.85
2018-02-11T21:49:26.684Z,88.04
2018-02-11T21:51:55.119Z,88.08
2018-02-11T21:54:23.420Z,88.13
2018-02-11T21:56:51.715Z,88.31
2018-02-11T21:59:20.052Z,88.29
2018-02-11T22:01:48.359Z,88.07
2018-02-11T22:04:16.652Z,87.86
2018-02-11T22:06:45.086Z,87.50
2018-02-11T22:09:13.391Z,87.02
2018-02-11T22:11:41.711Z,86.67
2018-02-11T22:14:10.075Z,86.72
2018-02-11T22:16:38.390Z,87.31
2018-02-11T22:19:06.932Z,87.64
2018-02-11T22:21:35.291Z,87.85
2018-02-11T22:24:03.628Z,88.00
2018-02-11T22:26:31.936Z,88.35
2018-02-11T22:29:00.765Z,88.72
2018-02-11T22:31:28.915Z,89.10
2018-02-11T22:33:57.220Z,89.67
2018-02-11T22:36:25.576Z,89.72
2018-02-11T22:38:53.883Z,89.85
2018-02-11T22:41:22.205Z,89.76
2018-02-11T22:43:50.543Z,89.91
2018-02-11T22:46:18.851Z,90.54
2018-02-11T22:48:47.216Z,90.38
2018-02-11T22:51:15.599Z,90.33
2018-02-11T22:53:43.907Z,90.43
2018-02-11T22:56:12.219Z,90.78
2018-02-11T22:58:40.555Z,91.18
2018-02-11T23:01:08.864Z,90.96
2018-02-11T23:03:37.170Z,90.99
2018-02-11T23:06:06.291Z,91.07
2018-02-11T23:08:34.611Z,91.34
2018-02-11T23:11:02.995Z,91.77
2018-02-11T23:13:32.451Z,92.20
2018-02-11T23:16:00.763Z,92.49
2018-02-11T23:18:29.074Z,92.78
2018-02-11T23:20:57.436Z,92.96
2018-02-11T23:23:25.762Z,92.93
2018-02-11T23:25:54.080Z,92.80
2018-02-11T23:28:23.146Z,92.74
2018-02-11T23:30:51.451Z,92.06
2018-02-11T23:33:19.769Z,91.84
2018-02-11T23:35:48.161Z,91.27
2018-02-11T23:38:16.479Z,90.88
2018-02-11T23:40:44.790Z,90.42
2018-02-11T23:43:13.901Z,90.17
2018-02-11T23:45:42.976Z,89.90
2018-02-11T23:48:12.103Z,89.74
2018-02-11T23:50:40.412Z,89.65
2018-02-11T23:53:08.726Z,89.76
2018-02-11T23:55:37.123Z,90.06
2018-02-11T23:58:05.440Z,90.45
